DLH109 EDDV-EDDC
Flight info
| Callsign | DLH109 |
|---|---|
| Flight time | 0h 33m |
| Altitude | 27000 |
| Route | POVEL3H/09R POVEL Z94 GALMA Z21 OSTRA DCT DND |
| Aircraft | A320/M-SDE3FGHIRWY/LB1 |
Departure
| Time | 2026-05-01 10:10 |
|---|---|
| Airport | Hannover Airport (EDDV) |
Arrival
| Time | 2026-05-01 10:44 |
|---|---|
| Airport | Dresden Airport (EDDC) |
| Time | Latitude | Longitude | Altitude | Speed | Heading |
|---|---|---|---|---|---|
| 2026-05-01 09:31 | 52.45767 | 9.69758 | 180 ft | 0 kts | 322° |
| 2026-05-01 09:59 | 52.45760 | 9.69766 | 180 ft | 4 kts | 322° |
| 2026-05-01 10:00 | 52.45739 | 9.69794 | 180 ft | 3 kts | 322° |
| 2026-05-01 10:00 | 52.45722 | 9.69815 | 181 ft | 4 kts | 320° |
| 2026-05-01 10:00 | 52.45702 | 9.69845 | 181 ft | 4 kts | 315° |
| 2026-05-01 10:00 | 52.45684 | 9.69877 | 182 ft | 4 kts | 306° |
| 2026-05-01 10:01 | 52.45671 | 9.69914 | 182 ft | 4 kts | 284° |
| 2026-05-01 10:01 | 52.45669 | 9.69932 | 182 ft | 0 kts | 272° |
| 2026-05-01 10:05 | 52.45668 | 9.69888 | 182 ft | 7 kts | 264° |
| 2026-05-01 10:05 | 52.45643 | 9.69833 | 182 ft | 6 kts | 209° |
| 2026-05-01 10:06 | 52.45615 | 9.69800 | 182 ft | 4 kts | 229° |
| 2026-05-01 10:06 | 52.45607 | 9.69757 | 182 ft | 4 kts | 263° |
| 2026-05-01 10:06 | 52.45608 | 9.69656 | 181 ft | 12 kts | 272° |
| 2026-05-01 10:06 | 52.45612 | 9.69507 | 179 ft | 14 kts | 272° |
| 2026-05-01 10:07 | 52.45617 | 9.69340 | 181 ft | 15 kts | 273° |
| 2026-05-01 10:07 | 52.45622 | 9.69167 | 180 ft | 16 kts | 272° |
| 2026-05-01 10:07 | 52.45627 | 9.68956 | 179 ft | 20 kts | 272° |
| 2026-05-01 10:07 | 52.45634 | 9.68731 | 182 ft | 20 kts | 272° |
| 2026-05-01 10:08 | 52.45646 | 9.68288 | 184 ft | 17 kts | 273° |
| 2026-05-01 10:08 | 52.45651 | 9.68076 | 182 ft | 20 kts | 272° |
| 2026-05-01 10:08 | 52.45659 | 9.67841 | 183 ft | 20 kts | 276° |
| 2026-05-01 10:09 | 52.45625 | 9.67724 | 183 ft | 10 kts | 214° |
| 2026-05-01 10:09 | 52.45566 | 9.67702 | 184 ft | 7 kts | 177° |
| 2026-05-01 10:09 | 52.45522 | 9.67732 | 192 ft | 8 kts | 149° |
| 2026-05-01 10:09 | 52.45496 | 9.67811 | 183 ft | 8 kts | 98° |
| 2026-05-01 10:10 | 52.45490 | 9.68050 | 182 ft | 54 kts | 92° |
| 2026-05-01 10:10 | 52.45459 | 9.69096 | 195 ft | 126 kts | 92° |
| 2026-05-01 10:10 | 52.45221 | 9.72689 | 1061 ft | 165 kts | 95° |
| 2026-05-01 10:11 | 52.45157 | 9.74674 | 1554 ft | 185 kts | 91° |
| 2026-05-01 10:11 | 52.45127 | 9.76910 | 1967 ft | 208 kts | 91° |
| 2026-05-01 10:11 | 52.45093 | 9.79363 | 2534 ft | 222 kts | 91° |
| 2026-05-01 10:11 | 52.45047 | 9.81894 | 3503 ft | 222 kts | 92° |
| 2026-05-01 10:12 | 52.44992 | 9.84483 | 4434 ft | 225 kts | 92° |
| 2026-05-01 10:12 | 52.44923 | 9.86192 | 4907 ft | 235 kts | 100° |
| 2026-05-01 10:12 | 52.42450 | 9.91580 | 6413 ft | 273 kts | 137° |
| 2026-05-01 10:13 | 52.41040 | 9.93733 | 7363 ft | 278 kts | 137° |
| 2026-05-01 10:13 | 52.39617 | 9.95900 | 8302 ft | 282 kts | 137° |
| 2026-05-01 10:13 | 52.38170 | 9.98114 | 9219 ft | 286 kts | 137° |
| 2026-05-01 10:14 | 52.35184 | 10.02692 | 10558 ft | 313 kts | 137° |
| 2026-05-01 10:14 | 52.33542 | 10.05213 | 10971 ft | 332 kts | 137° |
| 2026-05-01 10:14 | 52.31839 | 10.07834 | 11693 ft | 340 kts | 137° |
| 2026-05-01 10:14 | 52.30106 | 10.10493 | 12490 ft | 344 kts | 137° |
| 2026-05-01 10:15 | 52.28344 | 10.13188 | 13276 ft | 348 kts | 137° |
| 2026-05-01 10:15 | 52.26565 | 10.15904 | 14040 ft | 352 kts | 137° |
| 2026-05-01 10:15 | 52.24763 | 10.18658 | 14787 ft | 356 kts | 137° |
| 2026-05-01 10:15 | 52.22949 | 10.21438 | 15504 ft | 360 kts | 137° |
| 2026-05-01 10:16 | 52.21109 | 10.24258 | 16210 ft | 364 kts | 137° |
| 2026-05-01 10:16 | 52.19255 | 10.27094 | 16893 ft | 368 kts | 137° |
| 2026-05-01 10:16 | 52.15474 | 10.32854 | 18213 ft | 375 kts | 137° |
| 2026-05-01 10:17 | 52.13557 | 10.35761 | 18851 ft | 379 kts | 137° |
| 2026-05-01 10:17 | 52.09631 | 10.41705 | 20104 ft | 386 kts | 137° |
| 2026-05-01 10:17 | 52.07656 | 10.44695 | 20709 ft | 390 kts | 137° |
| 2026-05-01 10:18 | 52.03646 | 10.50753 | 21886 ft | 397 kts | 137° |
| 2026-05-01 10:18 | 52.01609 | 10.53821 | 22458 ft | 401 kts | 137° |
| 2026-05-01 10:18 | 51.99611 | 10.56826 | 22992 ft | 378 kts | 137° |
| 2026-05-01 10:19 | 51.97763 | 10.59606 | 23527 ft | 344 kts | 137° |
| 2026-05-01 10:19 | 51.96072 | 10.62146 | 24065 ft | 327 kts | 137° |
| 2026-05-01 10:19 | 51.94395 | 10.64661 | 24620 ft | 330 kts | 137° |
| 2026-05-01 10:20 | 51.90997 | 10.69745 | 25725 ft | 334 kts | 137° |
| 2026-05-01 10:20 | 51.89284 | 10.72296 | 26277 ft | 335 kts | 137° |
| 2026-05-01 10:20 | 51.87542 | 10.74893 | 26811 ft | 337 kts | 137° |
| 2026-05-01 10:20 | 51.85780 | 10.77519 | 26974 ft | 351 kts | 137° |
| 2026-05-01 10:21 | 51.83943 | 10.80254 | 27012 ft | 368 kts | 137° |
| 2026-05-01 10:21 | 51.79998 | 10.86137 | 27010 ft | 403 kts | 137° |
| 2026-05-01 10:21 | 51.77898 | 10.89268 | 27008 ft | 418 kts | 137° |
| 2026-05-01 10:22 | 51.73508 | 10.95781 | 27010 ft | 434 kts | 137° |
| 2026-05-01 10:22 | 51.69055 | 11.02359 | 27010 ft | 435 kts | 137° |
| 2026-05-01 10:23 | 51.66818 | 11.05656 | 27010 ft | 435 kts | 137° |
| 2026-05-01 10:23 | 51.62349 | 11.12223 | 27010 ft | 435 kts | 138° |
| 2026-05-01 10:23 | 51.60113 | 11.15501 | 27010 ft | 435 kts | 138° |
| 2026-05-01 10:24 | 51.56394 | 11.20949 | 27008 ft | 435 kts | 138° |
| 2026-05-01 10:24 | 51.51923 | 11.27491 | 27010 ft | 435 kts | 138° |
| 2026-05-01 10:25 | 51.47454 | 11.34016 | 27010 ft | 434 kts | 138° |
| 2026-05-01 10:25 | 51.43184 | 11.40819 | 27009 ft | 434 kts | 127° |
| 2026-05-01 10:26 | 51.41618 | 11.44949 | 27007 ft | 434 kts | 115° |
| 2026-05-01 10:26 | 51.40603 | 11.49489 | 27010 ft | 434 kts | 103° |
| 2026-05-01 10:26 | 51.40265 | 11.59103 | 27010 ft | 435 kts | 86° |
| 2026-05-01 10:27 | 51.40125 | 11.68800 | 26977 ft | 434 kts | 103° |
| 2026-05-01 10:27 | 51.38358 | 11.77990 | 26537 ft | 430 kts | 108° |
| 2026-05-01 10:28 | 51.37414 | 11.82539 | 26539 ft | 431 kts | 108° |
| 2026-05-01 10:28 | 51.35505 | 11.91623 | 25889 ft | 428 kts | 109° |
| 2026-05-01 10:28 | 51.34565 | 11.96108 | 25301 ft | 424 kts | 108° |
| 2026-05-01 10:29 | 51.32730 | 12.04978 | 24141 ft | 416 kts | 108° |
| 2026-05-01 10:29 | 51.31829 | 12.09337 | 23568 ft | 412 kts | 108° |
| 2026-05-01 10:30 | 51.30024 | 12.18028 | 22433 ft | 406 kts | 108° |
| 2026-05-01 10:30 | 51.28256 | 12.26526 | 21318 ft | 400 kts | 108° |
| 2026-05-01 10:31 | 51.26506 | 12.34885 | 20223 ft | 394 kts | 109° |
| 2026-05-01 10:31 | 51.24767 | 12.43118 | 19143 ft | 388 kts | 109° |
| 2026-05-01 10:32 | 51.23059 | 12.51224 | 18078 ft | 382 kts | 109° |
| 2026-05-01 10:32 | 51.22212 | 12.55228 | 17549 ft | 380 kts | 109° |
| 2026-05-01 10:32 | 51.20533 | 12.63135 | 16512 ft | 374 kts | 109° |
| 2026-05-01 10:33 | 51.18881 | 12.70874 | 15494 ft | 368 kts | 109° |
| 2026-05-01 10:33 | 51.17242 | 12.78540 | 14482 ft | 362 kts | 109° |
| 2026-05-01 10:34 | 51.16421 | 12.82371 | 13980 ft | 359 kts | 109° |
| 2026-05-01 10:34 | 51.15615 | 12.86122 | 13488 ft | 356 kts | 109° |
| 2026-05-01 10:34 | 51.14813 | 12.89839 | 12996 ft | 353 kts | 109° |
| 2026-05-01 10:35 | 51.13233 | 12.97141 | 12032 ft | 346 kts | 109° |
| 2026-05-01 10:35 | 51.12452 | 13.00742 | 11560 ft | 342 kts | 109° |
| 2026-05-01 10:35 | 51.11680 | 13.04304 | 11090 ft | 339 kts | 109° |
| 2026-05-01 10:35 | 51.10914 | 13.07822 | 10622 ft | 335 kts | 109° |
| 2026-05-01 10:36 | 51.09399 | 13.14742 | 9710 ft | 327 kts | 109° |
| 2026-05-01 10:36 | 51.08657 | 13.18138 | 9254 ft | 323 kts | 109° |
| 2026-05-01 10:36 | 51.07925 | 13.21491 | 8789 ft | 316 kts | 109° |
| 2026-05-01 10:37 | 51.07222 | 13.24703 | 8342 ft | 300 kts | 109° |
| 2026-05-01 10:37 | 51.05910 | 13.30674 | 7520 ft | 273 kts | 109° |
| 2026-05-01 10:37 | 51.05287 | 13.33499 | 7127 ft | 269 kts | 109° |
| 2026-05-01 10:38 | 51.04661 | 13.36337 | 6717 ft | 267 kts | 109° |
| 2026-05-01 10:38 | 51.04055 | 13.39081 | 6427 ft | 267 kts | 109° |
| 2026-05-01 10:38 | 51.03435 | 13.41875 | 6123 ft | 262 kts | 109° |
| 2026-05-01 10:38 | 51.02839 | 13.44571 | 5821 ft | 257 kts | 109° |
| 2026-05-01 10:39 | 51.02250 | 13.47224 | 5522 ft | 252 kts | 109° |
| 2026-05-01 10:39 | 51.01671 | 13.49831 | 5200 ft | 250 kts | 109° |
| 2026-05-01 10:39 | 51.01091 | 13.52442 | 4790 ft | 251 kts | 109° |
| 2026-05-01 10:39 | 51.00517 | 13.55034 | 4467 ft | 246 kts | 109° |
| 2026-05-01 10:40 | 51.00299 | 13.57753 | 3902 ft | 242 kts | 77° |
| 2026-05-01 10:40 | 51.01073 | 13.59962 | 3363 ft | 238 kts | 45° |
| 2026-05-01 10:40 | 51.02309 | 13.61761 | 2849 ft | 234 kts | 37° |
| 2026-05-01 10:40 | 51.03551 | 13.63303 | 2667 ft | 218 kts | 38° |
| 2026-05-01 10:41 | 51.04671 | 13.64783 | 2573 ft | 200 kts | 40° |
| 2026-05-01 10:41 | 51.05664 | 13.66135 | 2502 ft | 178 kts | 40° |
| 2026-05-01 10:41 | 51.07571 | 13.68747 | 2056 ft | 182 kts | 40° |
| 2026-05-01 10:42 | 51.08537 | 13.70071 | 1804 ft | 178 kts | 40° |
| 2026-05-01 10:42 | 51.09420 | 13.71282 | 1576 ft | 159 kts | 40° |
| 2026-05-01 10:42 | 51.10215 | 13.72374 | 1371 ft | 145 kts | 40° |
| 2026-05-01 10:42 | 51.10963 | 13.73410 | 1169 ft | 140 kts | 41° |
| 2026-05-01 10:43 | 51.11704 | 13.74424 | 941 ft | 138 kts | 40° |
| 2026-05-01 10:43 | 51.12418 | 13.75407 | 771 ft | 134 kts | 40° |
| 2026-05-01 10:43 | 51.13052 | 13.76281 | 714 ft | 98 kts | 40° |
| 2026-05-01 10:43 | 51.13465 | 13.76842 | 711 ft | 61 kts | 40° |
| 2026-05-01 10:44 | 51.13711 | 13.77182 | 715 ft | 33 kts | 41° |
| 2026-05-01 10:44 | 51.13874 | 13.77401 | 715 ft | 24 kts | 41° |
| 2026-05-01 10:44 | 51.13864 | 13.77584 | 712 ft | 18 kts | 126° |
| 2026-05-01 10:44 | 51.13796 | 13.77703 | 713 ft | 7 kts | 142° |
| 2026-05-01 10:45 | 51.13752 | 13.77712 | 714 ft | 6 kts | 198° |
| 2026-05-01 10:45 | 51.13723 | 13.77676 | 716 ft | 5 kts | 224° |
| 2026-05-01 10:45 | 51.13691 | 13.77628 | 711 ft | 8 kts | 224° |
| 2026-05-01 10:45 | 51.13654 | 13.77573 | 712 ft | 7 kts | 216° |
| 2026-05-01 10:46 | 51.13621 | 13.77534 | 713 ft | 6 kts | 217° |
| 2026-05-01 10:46 | 51.13592 | 13.77499 | 713 ft | 5 kts | 218° |
| 2026-05-01 10:46 | 51.13567 | 13.77464 | 713 ft | 6 kts | 223° |
| 2026-05-01 10:46 | 51.13519 | 13.77393 | 711 ft | 10 kts | 220° |
| 2026-05-01 10:47 | 51.13470 | 13.77328 | 715 ft | 9 kts | 220° |
| 2026-05-01 10:47 | 51.13426 | 13.77267 | 714 ft | 8 kts | 221° |
| 2026-05-01 10:47 | 51.13383 | 13.77208 | 712 ft | 12 kts | 221° |
| 2026-05-01 10:47 | 51.13315 | 13.77115 | 711 ft | 13 kts | 220° |
| 2026-05-01 10:48 | 51.13243 | 13.77015 | 715 ft | 14 kts | 221° |
| 2026-05-01 10:48 | 51.13165 | 13.76907 | 711 ft | 16 kts | 220° |
| 2026-05-01 10:48 | 51.13074 | 13.76784 | 715 ft | 18 kts | 221° |
| 2026-05-01 10:48 | 51.12972 | 13.76643 | 715 ft | 21 kts | 220° |
| 2026-05-01 10:49 | 51.12864 | 13.76495 | 716 ft | 16 kts | 221° |
| 2026-05-01 10:49 | 51.12796 | 13.76458 | 715 ft | 6 kts | 151° |
| 2026-05-01 10:49 | 51.12769 | 13.76500 | 712 ft | 5 kts | 131° |
| 2026-05-01 10:49 | 51.12747 | 13.76540 | 711 ft | 4 kts | 131° |
| 2026-05-01 10:50 | 51.12726 | 13.76578 | 713 ft | 7 kts | 131° |
| 2026-05-01 10:50 | 51.12692 | 13.76618 | 711 ft | 5 kts | 173° |
| 2026-05-01 10:50 | 51.12663 | 13.76593 | 714 ft | 4 kts | 221° |
| 2026-05-01 10:50 | 51.12642 | 13.76563 | 711 ft | 4 kts | 221° |
| 2026-05-01 10:51 | 51.12630 | 13.76546 | 713 ft | 3 kts | 221° |
| 2026-05-01 10:51 | 51.12629 | 13.76545 | 714 ft | 0 kts | 221° |
| 2026-05-01 10:51 | 51.12628 | 13.76543 | 714 ft | 0 kts | 221° |